Portada
METAR-TAF:

METAR-TAF

Aeroports :

Koné, Nova Caledònia

latitud: 21-03-12S, longitud: 164-50-18E, altitud: 7 m

METAR: manca

Hora: 19:49 (08:49 UTC)

Pronòstic

L'informe es va fer fa 3 hores i 49 minuts, a les 05:00 UTC
Pronòstic vàlid del 19 a les 06 UTC al 20 a les 06 UTC
Vent 10 kt del Sud
Visibilitat 10 km o més
Cel ennuvolat a una alçada de 5500 ft
Evolucionant progressivament
l' 19 a les 07 UTC al 19 a les 09 UTC
Vent 2 kt amb direcció variable
Evolucionant progressivament
l' 19 a les 23 UTC al 20 a les 01 UTC
Vent 10 kt del Sud/Sud-Oest

TAF: NWWD 190500Z 1906/2006 18010KT 9999 BKN055 BECMG 1907/1909 VRB02KT BECMG 1923/2001 20010KT

Observacions i pronòstics meteorològics de més de 4000 aeroports (METAR i TAF).

Les estacions disponibles són els punts grocs i vermells al mapa.

Posi el ratolí al punt desitjat per veure el nom de l'estació.

Feu clic per veure les observacions i els pronòstics meteorològics.

Per canviar el mapa: feu clic els botons verds amb una creu de color negre per apropar; al botó verd amb un guió per allunyar la imatge; o en les fletxes verdes per a mapes adjacents.


METAR-TAF: